Time;durP1;ratioP1;P1;durP2;ratioP2;P2;SDS_P1;SDS_P2;PMS_P1;PMS_P2;Temp;Humidity;BMP_temperature;BMP_pressure;BME280_temperature;BME280_humidity;BME280_pressure;Samples;Min_cycle;Max_cycle;Signal;HPM_P1;HPM_P2
2022/03/05 00:02:01;;;;;;;23.10;11.75;;;1.20;99.90;;;;;;5094876;28;20028;-85
2022/03/05 00:04:26;;;;;;;21.45;12.02;;;1.40;99.90;;;;;;5112789;28;20028;-85
2022/03/05 00:07:14;;;;;;;24.40;13.20;;;1.30;99.90;;;;;;5119654;28;20038;-85
2022/03/05 00:09:42;;;;;;;24.35;12.05;;;1.30;99.90;;;;;;5115030;28;20019;-85
2022/03/05 00:12:08;;;;;;;22.23;12.38;;;1.30;99.90;;;;;;5114651;28;20023;-85
2022/03/05 00:14:52;;;;;;;23.35;12.52;;;1.30;99.90;;;;;;5133322;28;20031;-85
2022/03/05 00:17:18;;;;;;;22.58;12.85;;;1.30;99.90;;;;;;5114359;28;20434;-85
2022/03/05 00:19:58;;;;;;;22.00;13.18;;;1.30;99.90;;;;;;5118559;28;20115;-85
2022/03/05 00:22:24;;;;;;;22.63;12.45;;;1.30;99.90;;;;;;5119723;27;20505;-85
2022/03/05 00:24:50;;;;;;;26.23;12.93;;;1.40;99.90;;;;;;5118747;27;20037;-85
2022/03/05 00:27:18;;;;;;;20.00;11.77;;;1.40;99.90;;;;;;5106752;28;20475;-85
2022/03/05 00:29:44;;;;;;;26.77;13.90;;;1.50;99.90;;;;;;5096143;28;20142;-85
2022/03/05 00:32:09;;;;;;;25.75;12.27;;;1.40;99.90;;;;;;5077235;28;20078;-85
2022/03/05 00:34:35;;;;;;;27.40;12.90;;;1.40;99.90;;;;;;5093112;28;20071;-85
2022/03/05 00:37:38;;;;;;;23.67;12.23;;;1.40;99.90;;;;;;5111460;27;20027;-85
2022/03/05 00:40:05;;;;;;;20.85;12.00;;;1.40;99.90;;;;;;5131010;27;20023;-85
2022/03/05 00:42:30;;;;;;;18.63;11.18;;;1.30;99.90;;;;;;5114968;28;20023;-87
2022/03/05 00:44:58;;;;;;;18.17;11.25;;;1.30;99.90;;;;;;5116145;28;20045;-87
2022/03/05 00:47:24;;;;;;;23.30;12.55;;;1.20;99.90;;;;;;5097734;28;20023;-87
2022/03/05 00:49:49;;;;;;;25.83;13.07;;;1.30;99.90;;;;;;5116131;28;20031;-87
2022/03/05 00:52:18;;;;;;;26.05;13.10;;;1.20;99.90;;;;;;5115794;28;20047;-87
2022/03/05 00:54:43;;;;;;;23.30;13.13;;;1.20;99.90;;;;;;5115910;28;20035;-86
2022/03/05 00:57:09;;;;;;;31.35;14.82;;;1.20;99.90;;;;;;5116062;28;20024;-86
2022/03/05 00:59:57;;;;;;;23.38;13.35;;;1.10;99.90;;;;;;5115859;28;20038;-87
2022/03/05 01:02:23;;;;;;;30.35;14.07;;;1.10;99.90;;;;;;5127082;27;20057;-86
2022/03/05 01:04:48;;;;;;;23.08;13.48;;;1.00;99.90;;;;;;5118023;27;20057;-86
2022/03/05 01:07:39;;;;;;;30.85;15.32;;;1.00;99.90;;;;;;5110280;28;20387;-87
2022/03/05 01:10:06;;;;;;;26.15;13.48;;;1.00;99.90;;;;;;5115662;28;20027;-86
2022/03/05 01:12:33;;;;;;;28.10;14.90;;;1.00;99.90;;;;;;5114721;28;20032;-86
2022/03/05 01:15:05;;;;;;;27.63;13.43;;;0.90;99.90;;;;;;5097310;28;20030;-86
2022/03/05 01:17:30;;;;;;;28.50;13.73;;;1.00;99.90;;;;;;5115079;28;20114;-86
2022/03/05 01:19:56;;;;;;;23.33;13.65;;;0.90;99.90;;;;;;5097186;28;20515;-87
2022/03/05 01:22:23;;;;;;;27.52;14.70;;;0.90;99.90;;;;;;5115209;28;20019;-87
2022/03/05 01:24:49;;;;;;;27.80;14.13;;;0.90;99.90;;;;;;5115576;28;20379;-87
2022/03/05 01:27:15;;;;;;;27.85;14.45;;;0.80;99.90;;;;;;5115202;28;20023;-86
2022/03/05 01:29:40;;;;;;;32.20;14.48;;;0.80;99.90;;;;;;5115252;28;20020;-86
2022/03/05 01:32:06;;;;;;;31.38;15.18;;;0.80;99.90;;;;;;5096765;27;20115;-87
2022/03/05 01:34:32;;;;;;;28.80;14.85;;;0.80;99.90;;;;;;5114546;28;20043;-86
2022/03/05 01:37:00;;;;;;;27.20;15.38;;;0.70;99.90;;;;;;5115005;28;20593;-86
2022/03/05 01:39:25;;;;;;;30.60;15.82;;;0.70;99.90;;;;;;5115137;28;20533;-86
2022/03/05 01:41:55;;;;;;;26.35;15.57;;;0.70;99.90;;;;;;5122127;27;20024;-86
2022/03/05 01:44:23;;;;;;;29.05;14.68;;;0.70;99.90;;;;;;5115088;28;20022;-87
2022/03/05 01:46:49;;;;;;;29.45;14.27;;;0.60;99.90;;;;;;5096542;28;20023;-87
2022/03/05 01:49:15;;;;;;;30.38;17.00;;;0.60;99.90;;;;;;5115074;28;20467;-87
2022/03/05 01:51:43;;;;;;;33.70;15.32;;;0.60;99.90;;;;;;5114857;28;20027;-87
2022/03/05 01:54:10;;;;;;;29.77;15.30;;;0.50;99.90;;;;;;5114629;28;20027;-87
2022/03/05 01:56:37;;;;;;;23.88;14.60;;;0.50;99.90;;;;;;5121508;27;20023;-87
2022/03/05 01:59:05;;;;;;;25.70;14.48;;;0.50;99.90;;;;;;5135275;27;20027;-86
2022/03/05 02:01:31;;;;;;;26.83;14.77;;;0.50;99.90;;;;;;5135340;27;20031;-87
2022/03/05 02:03:57;;;;;;;29.90;15.50;;;0.50;99.90;;;;;;5135271;27;20019;-87
2022/03/05 02:06:31;;;;;;;30.08;14.00;;;0.50;99.90;;;;;;5120841;27;20094;-87
2022/03/05 02:08:57;;;;;;;28.08;14.88;;;0.40;99.90;;;;;;5114590;28;20034;-87
2022/03/05 02:11:23;;;;;;;26.67;14.77;;;0.50;99.90;;;;;;5096224;28;20049;-87
2022/03/05 02:13:49;;;;;;;34.58;18.00;;;0.40;99.90;;;;;;5114345;28;20028;-87
2022/03/05 02:16:15;;;;;;;29.55;15.13;;;0.30;99.90;;;;;;5114485;28;20024;-87
2022/03/05 02:18:45;;;;;;;32.60;16.45;;;0.40;99.90;;;;;;5096019;28;20077;-86
2022/03/05 02:21:10;;;;;;;29.48;15.85;;;0.30;99.90;;;;;;5114077;28;20027;-87
2022/03/05 02:23:36;;;;;;;34.45;16.27;;;0.20;99.90;;;;;;5113832;27;20490;-87
2022/03/05 02:26:02;;;;;;;34.25;16.92;;;0.20;99.90;;;;;;5114295;28;20027;-87
2022/03/05 02:28:29;;;;;;;35.40;17.60;;;0.20;99.90;;;;;;5114115;28;20377;-86
2022/03/05 02:30:55;;;;;;;31.05;17.17;;;0.20;99.90;;;;;;5114226;28;20022;-86
2022/03/05 02:33:21;;;;;;;30.52;17.30;;;0.10;99.90;;;;;;5106440;27;20019;-86
2022/03/05 02:35:47;;;;;;;30.95;16.67;;;0.10;99.90;;;;;;5108188;28;20126;-86
2022/03/05 02:38:18;;;;;;;29.52;15.90;;;0.10;99.90;;;;;;5096121;28;20031;-86
2022/03/05 02:41:06;;;;;;;30.58;16.35;;;0.10;99.90;;;;;;5113819;28;20103;-86
2022/03/05 02:43:31;;;;;;;33.92;18.30;;;0.10;99.90;;;;;;5113249;28;20410;-86
2022/03/05 02:45:57;;;;;;;32.58;17.42;;;0.00;99.90;;;;;;5113954;28;20106;-86
2022/03/05 02:48:23;;;;;;;36.20;19.00;;;0.00;99.90;;;;;;5095575;28;20028;-86
2022/03/05 02:50:50;;;;;;;39.42;18.33;;;0.00;99.90;;;;;;5095724;28;20034;-86
2022/03/05 02:53:16;;;;;;;34.60;19.17;;;-0.10;99.90;;;;;;5113521;28;20034;-86
2022/03/05 02:55:49;;;;;;;30.77;17.40;;;-0.10;99.90;;;;;;5116102;27;20113;-87
2022/03/05 02:58:14;;;;;;;33.88;18.45;;;-0.10;99.90;;;;;;5134268;27;20475;-86
2022/03/05 03:00:40;;;;;;;42.80;19.38;;;-0.20;99.90;;;;;;5130508;27;20027;-86
2022/03/05 03:03:07;;;;;;;39.78;19.95;;;-0.20;99.90;;;;;;5113554;28;20084;-85
2022/03/05 03:05:32;;;;;;;47.17;19.90;;;-0.20;99.90;;;;;;5113326;28;20028;-87
2022/03/05 03:08:16;;;;;;;45.85;21.73;;;-0.30;99.90;;;;;;5113318;28;20054;-87
2022/03/05 03:10:42;;;;;;;46.53;22.02;;;-0.30;99.90;;;;;;5095130;28;20053;-86
2022/03/05 03:13:07;;;;;;;34.72;18.15;;;-0.30;99.90;;;;;;5094931;28;20076;-87
2022/03/05 03:15:34;;;;;;;47.22;21.67;;;-0.30;99.90;;;;;;5113260;28;20024;-86
2022/03/05 03:17:59;;;;;;;44.72;20.80;;;-0.30;99.90;;;;;;5113486;28;20026;-86
2022/03/05 03:20:26;;;;;;;44.67;22.27;;;-0.30;99.90;;;;;;5113289;28;20451;-86
2022/03/05 03:23:08;;;;;;;39.85;20.33;;;-0.30;99.90;;;;;;5094515;28;20023;-86
2022/03/05 03:25:34;;;;;;;50.97;20.48;;;-0.30;99.90;;;;;;5113207;28;20019;-86
2022/03/05 03:27:59;;;;;;;44.50;20.98;;;-0.30;99.90;;;;;;5094903;28;20077;-86
2022/03/05 03:30:42;;;;;;;49.25;22.85;;;-0.40;99.90;;;;;;5113025;28;20024;-86
2022/03/05 03:33:08;;;;;;;45.17;20.75;;;-0.40;99.90;;;;;;5095416;28;20099;-86
2022/03/05 03:35:33;;;;;;;46.22;21.50;;;-0.50;99.90;;;;;;5113019;28;20048;-85
2022/03/05 03:38:19;;;;;;;47.08;21.30;;;-0.50;99.90;;;;;;5094661;28;20101;-86
2022/03/05 03:40:45;;;;;;;41.22;21.00;;;-0.50;99.90;;;;;;5094673;28;20031;-86
2022/03/05 03:43:27;;;;;;;39.05;21.98;;;-0.50;99.90;;;;;;5113227;28;20434;-86
2022/03/05 03:45:52;;;;;;;40.92;20.60;;;-0.40;99.90;;;;;;5092793;28;20104;-86
2022/03/05 03:48:18;;;;;;;47.25;22.25;;;-0.30;99.90;;;;;;5074865;28;20103;-86
2022/03/05 03:50:49;;;;;;;47.75;22.30;;;-0.30;99.90;;;;;;5092691;28;20027;-86
2022/03/05 03:53:14;;;;;;;47.42;23.23;;;-0.30;99.90;;;;;;5092710;28;20091;-86
2022/03/05 03:55:40;;;;;;;46.67;22.10;;;-0.30;99.90;;;;;;5093209;28;20119;-85
2022/03/05 03:58:09;;;;;;;43.78;21.15;;;-0.30;99.90;;;;;;5078530;28;20501;-85
2022/03/05 04:00:34;;;;;;;38.78;20.35;;;-0.40;99.90;;;;;;5116059;28;20055;-86
2022/03/05 04:03:00;;;;;;;47.45;22.52;;;-0.40;99.90;;;;;;5116711;28;20052;-86
2022/03/05 04:05:38;;;;;;;47.10;22.40;;;-0.40;99.90;;;;;;5116674;28;20049;-85
2022/03/05 04:10:48;;;;;;;49.35;22.60;;;-0.40;99.90;;;;;;5121182;27;20096;-86
2022/03/05 04:13:14;;;;;;;53.65;22.88;;;-0.40;99.90;;;;;;5128738;27;20028;-86
2022/03/05 04:15:39;;;;;;;46.28;22.77;;;-0.20;99.90;;;;;;5116644;28;20026;-86
2022/03/05 04:18:06;;;;;;;45.08;22.25;;;-0.20;99.90;;;;;;5116465;28;20020;-87
2022/03/05 04:20:45;;;;;;;50.90;23.77;;;-0.10;99.90;;;;;;5116536;28;20024;-86
2022/03/05 04:23:11;;;;;;;43.55;22.23;;;-0.10;99.90;;;;;;5115810;28;20107;-86
2022/03/05 04:25:36;;;;;;;48.78;22.55;;;-0.10;99.90;;;;;;5098204;28;20530;-87
2022/03/05 04:28:13;;;;;;;48.33;22.00;;;0.00;99.90;;;;;;5116598;28;20027;-86
2022/03/05 04:30:39;;;;;;;56.67;24.55;;;0.00;99.90;;;;;;5121440;27;20101;-85
2022/03/05 04:33:06;;;;;;;43.28;20.88;;;0.00;99.90;;;;;;5116215;28;20067;-85
2022/03/05 04:35:31;;;;;;;50.45;21.65;;;0.00;99.90;;;;;;5115617;27;20032;-85
2022/03/05 04:38:16;;;;;;;47.95;20.23;;;0.00;99.90;;;;;;5116074;28;20031;-85
2022/03/05 04:40:42;;;;;;;44.72;20.60;;;0.00;99.90;;;;;;5097848;28;20055;-85
2022/03/05 04:43:07;;;;;;;46.30;20.92;;;0.00;99.90;;;;;;5115933;28;20051;-85
2022/03/05 04:45:35;;;;;;;47.15;20.00;;;0.10;99.90;;;;;;5116067;28;20030;-85
2022/03/05 04:48:00;;;;;;;42.03;19.08;;;0.10;99.90;;;;;;5116303;28;20081;-85
2022/03/05 04:50:27;;;;;;;42.08;19.55;;;0.10;99.90;;;;;;5115807;28;20027;-86
2022/03/05 04:52:53;;;;;;;35.15;17.25;;;0.10;99.90;;;;;;5083365;28;20435;-87
2022/03/05 04:55:18;;;;;;;36.25;17.45;;;0.00;99.90;;;;;;5115963;28;20111;-87
2022/03/05 04:57:50;;;;;;;40.50;20.75;;;0.00;99.90;;;;;;5120371;27;20023;-86
2022/03/05 05:00:22;;;;;;;43.15;20.23;;;0.00;99.90;;;;;;5121020;27;20043;-87
2022/03/05 05:02:48;;;;;;;40.95;18.70;;;0.10;99.90;;;;;;5097524;28;20026;-87
2022/03/05 05:05:13;;;;;;;40.35;18.48;;;-0.10;99.90;;;;;;5119092;27;20094;-86
2022/03/05 05:07:41;;;;;;;40.92;18.40;;;-0.10;99.90;;;;;;5122684;27;20024;-86
2022/03/05 05:10:07;;;;;;;34.13;16.15;;;-0.20;99.90;;;;;;5115611;28;20448;-87
2022/03/05 05:12:32;;;;;;;48.60;20.58;;;-0.20;99.90;;;;;;5120635;27;20095;-86
2022/03/05 05:14:58;;;;;;;45.20;20.98;;;-0.30;99.90;;;;;;5115562;28;20042;-86
2022/03/05 05:17:23;;;;;;;40.67;19.45;;;-0.50;99.90;;;;;;5122821;27;20090;-86
2022/03/05 05:20:06;;;;;;;41.05;19.13;;;-0.60;99.90;;;;;;5136133;27;20027;-85
2022/03/05 05:22:32;;;;;;;43.20;19.10;;;-0.60;99.90;;;;;;5117343;27;20383;-87
2022/03/05 05:25:10;;;;;;;39.75;19.08;;;-0.60;99.90;;;;;;5110446;28;20074;-86
2022/03/05 05:27:37;;;;;;;42.35;19.65;;;-0.60;99.90;;;;;;5115389;28;20019;-86
2022/03/05 05:30:05;;;;;;;49.45;21.35;;;-0.70;99.90;;;;;;5115035;28;20420;-87
2022/03/05 05:32:31;;;;;;;41.22;19.52;;;-0.70;99.90;;;;;;5097098;28;20432;-86
2022/03/05 05:35:02;;;;;;;38.15;18.63;;;-0.70;99.90;;;;;;5115105;28;20043;-86
2022/03/05 05:37:28;;;;;;;39.45;19.58;;;-0.80;99.90;;;;;;5114490;28;20030;-86
2022/03/05 05:39:53;;;;;;;43.50;21.02;;;-0.80;99.90;;;;;;5115135;28;20019;-86
2022/03/05 05:42:19;;;;;;;45.90;21.42;;;-0.90;99.90;;;;;;5115145;28;20483;-86
2022/03/05 05:44:55;;;;;;;52.33;23.45;;;-0.90;99.90;;;;;;5115013;28;20027;-86
2022/03/05 05:47:20;;;;;;;46.13;21.17;;;-1.00;99.90;;;;;;5096842;28;20030;-86
2022/03/05 05:49:46;;;;;;;44.80;21.52;;;-1.00;99.90;;;;;;5096264;28;20430;-86
2022/03/05 05:52:14;;;;;;;46.42;21.83;;;-1.10;99.90;;;;;;5114618;28;20032;-86
2022/03/05 05:54:40;;;;;;;43.47;20.98;;;-1.10;99.90;;;;;;5114648;28;20023;-86
2022/03/05 05:57:10;;;;;;;48.95;21.60;;;-1.20;99.90;;;;;;5114917;27;20035;-86
2022/03/05 05:59:36;;;;;;;53.83;24.33;;;-1.20;99.90;;;;;;5114555;28;20024;-86
2022/03/05 06:02:02;;;;;;;49.40;21.02;;;-1.30;99.90;;;;;;5114243;28;20032;-85
2022/03/05 06:04:36;;;;;;;37.65;19.90;;;-1.30;99.90;;;;;;5114335;28;20043;-86
2022/03/05 06:07:01;;;;;;;56.85;21.58;;;-1.30;99.90;;;;;;5095676;28;20042;-86
2022/03/05 06:09:27;;;;;;;40.83;19.25;;;-1.40;99.90;;;;;;5114641;28;20023;-86
2022/03/05 06:11:56;;;;;;;44.72;20.55;;;-1.40;99.90;;;;;;5114195;28;20076;-86
2022/03/05 06:14:22;;;;;;;38.83;19.42;;;-1.50;99.90;;;;;;5096094;28;20383;-86
2022/03/05 06:16:47;;;;;;;48.08;20.33;;;-1.50;99.90;;;;;;5114487;28;20030;-83
2022/03/05 06:19:27;;;;;;;38.28;17.55;;;-1.50;99.90;;;;;;5113425;28;20016;-83
2022/03/05 06:21:53;;;;;;;50.97;21.05;;;-1.50;99.90;;;;;;5094513;28;20016;-83
2022/03/05 06:24:26;;;;;;;36.22;18.05;;;-1.50;99.90;;;;;;5113862;28;20031;-82
2022/03/05 06:26:51;;;;;;;41.53;18.63;;;-1.50;99.90;;;;;;5113677;28;20024;-82
2022/03/05 06:29:17;;;;;;;41.38;16.67;;;-1.50;99.90;;;;;;5113945;28;20505;-82
2022/03/05 06:31:54;;;;;;;37.85;15.88;;;-1.50;99.90;;;;;;5113495;28;20070;-82
2022/03/05 06:34:20;;;;;;;34.58;17.40;;;-1.40;99.90;;;;;;5095682;28;20023;-82
2022/03/05 06:36:45;;;;;;;31.15;15.55;;;-1.40;99.90;;;;;;5113555;28;20046;-82
2022/03/05 06:39:12;;;;;;;39.40;17.45;;;-1.30;99.90;;;;;;5115456;27;20015;-82
2022/03/05 06:41:37;;;;;;;42.35;18.48;;;-1.30;99.90;;;;;;5114046;28;20027;-82
2022/03/05 06:44:03;;;;;;;46.60;18.50;;;-1.30;99.90;;;;;;5113463;28;20024;-83
2022/03/05 06:46:31;;;;;;;34.58;16.08;;;-1.20;99.90;;;;;;5113611;28;20026;-82
2022/03/05 06:48:56;;;;;;;43.00;19.30;;;-1.20;99.90;;;;;;5095348;28;20023;-83
2022/03/05 06:51:22;;;;;;;35.50;17.23;;;-1.10;99.90;;;;;;5125057;27;20030;-83
2022/03/05 06:53:54;;;;;;;42.92;18.40;;;-1.10;99.90;;;;;;5134143;27;20029;-83
2022/03/05 06:56:19;;;;;;;44.20;20.10;;;-1.10;99.90;;;;;;5134378;27;20027;-83
2022/03/05 06:58:45;;;;;;;53.65;23.38;;;-1.00;99.90;;;;;;5132631;27;20023;-83
2022/03/05 07:01:16;;;;;;;41.72;20.83;;;-1.00;99.90;;;;;;5094961;28;20433;-82
2022/03/05 07:03:41;;;;;;;36.83;18.90;;;-1.00;99.90;;;;;;5113291;28;20020;-83
2022/03/05 07:06:07;;;;;;;38.20;20.10;;;-0.90;99.90;;;;;;5094137;28;20046;-83
2022/03/05 07:08:32;;;;;;;48.72;22.08;;;-0.90;99.90;;;;;;5114002;27;20544;-83
2022/03/05 07:10:58;;;;;;;38.33;18.63;;;-0.90;99.90;;;;;;5094608;28;20042;-83
2022/03/05 07:13:24;;;;;;;38.72;19.48;;;-0.80;99.90;;;;;;5113586;27;20412;-83
2022/03/05 07:15:49;;;;;;;39.67;20.75;;;-0.80;99.90;;;;;;5095634;28;20428;-83
2022/03/05 07:18:15;;;;;;;47.20;20.65;;;-0.70;99.90;;;;;;5094818;27;20023;-83
2022/03/05 07:20:41;;;;;;;47.53;22.98;;;-0.70;99.90;;;;;;5121356;27;20031;-83
2022/03/05 07:23:07;;;;;;;48.88;21.80;;;-0.60;99.90;;;;;;5111250;27;20043;-83
2022/03/05 07:25:43;;;;;;;41.60;19.70;;;-0.50;99.90;;;;;;5100939;28;20431;-83
2022/03/05 07:28:10;;;;;;;45.50;20.95;;;-0.40;99.90;;;;;;5112921;28;20024;-83
2022/03/05 07:30:37;;;;;;;45.00;20.55;;;-0.40;99.90;;;;;;5099844;27;20084;-83
2022/03/05 07:33:03;;;;;;;50.45;20.38;;;-0.30;99.90;;;;;;5133355;27;20037;-83
2022/03/05 07:35:29;;;;;;;44.30;19.75;;;-0.20;99.90;;;;;;5124226;28;20035;-83
2022/03/05 07:38:18;;;;;;;40.17;19.05;;;-0.20;99.90;;;;;;5130276;28;20080;-84
2022/03/05 07:40:44;;;;;;;45.22;21.20;;;-0.10;99.90;;;;;;5129382;28;20027;-84
2022/03/05 07:43:12;;;;;;;41.22;20.40;;;0.00;99.90;;;;;;5132326;28;20015;-84
2022/03/05 07:45:39;;;;;;;46.35;19.40;;;0.00;99.90;;;;;;5113213;28;20015;-83
2022/03/05 07:48:05;;;;;;;40.88;18.52;;;0.10;99.90;;;;;;5112540;28;20078;-85
2022/03/05 07:50:31;;;;;;;38.72;18.02;;;0.20;99.90;;;;;;5112606;28;20051;-84
2022/03/05 07:52:56;;;;;;;41.22;18.90;;;0.30;99.90;;;;;;5093999;28;20034;-85
2022/03/05 07:55:22;;;;;;;35.38;18.92;;;0.40;99.90;;;;;;5112555;28;20070;-85
2022/03/05 07:57:47;;;;;;;32.67;15.77;;;0.50;99.90;;;;;;5092509;28;20492;-86
2022/03/05 08:00:13;;;;;;;31.75;17.88;;;0.50;99.90;;;;;;5083431;28;20028;-86
2022/03/05 08:02:39;;;;;;;27.85;15.45;;;0.60;99.90;;;;;;5112370;28;20457;-85
2022/03/05 08:05:05;;;;;;;45.25;18.67;;;0.70;99.90;;;;;;5112009;28;20395;-85
2022/03/05 08:07:31;;;;;;;35.15;18.65;;;0.70;99.90;;;;;;5112768;28;20055;-86
2022/03/05 08:09:57;;;;;;;39.30;20.48;;;0.80;99.90;;;;;;5094417;28;20063;-86
2022/03/05 08:12:23;;;;;;;37.90;19.55;;;0.90;99.90;;;;;;5112356;28;20063;-86
2022/03/05 08:14:48;;;;;;;38.85;19.42;;;1.00;99.90;;;;;;5094340;28;20062;-85
2022/03/05 08:17:14;;;;;;;32.85;17.42;;;1.00;99.90;;;;;;5094183;28;20020;-86
2022/03/05 08:19:41;;;;;;;36.60;18.42;;;1.00;99.90;;;;;;5112261;28;20072;-86
2022/03/05 08:22:06;;;;;;;38.47;19.20;;;1.10;99.90;;;;;;5111090;28;20027;-85
2022/03/05 08:24:32;;;;;;;41.63;21.20;;;1.10;99.90;;;;;;5112103;28;20084;-86
2022/03/05 08:26:57;;;;;;;29.75;17.67;;;1.20;99.90;;;;;;5094014;28;20027;-86
2022/03/05 08:29:24;;;;;;;38.08;19.48;;;1.30;99.90;;;;;;5112134;28;20490;-86
2022/03/05 08:31:49;;;;;;;38.88;19.40;;;1.30;99.90;;;;;;5093907;28;20394;-86
2022/03/05 08:34:15;;;;;;;36.10;19.65;;;1.50;99.90;;;;;;5112022;28;20107;-86
2022/03/05 08:36:41;;;;;;;47.30;21.38;;;1.40;99.90;;;;;;5111462;28;20507;-86
2022/03/05 08:39:06;;;;;;;38.33;20.67;;;1.40;99.90;;;;;;5111595;28;20506;-86
2022/03/05 08:41:32;;;;;;;40.65;22.27;;;1.50;99.90;;;;;;5094188;28;20017;-85
2022/03/05 08:43:57;;;;;;;41.00;21.23;;;1.50;99.90;;;;;;5115697;28;20026;-86
2022/03/05 08:46:23;;;;;;;47.70;23.05;;;1.50;99.90;;;;;;5115326;28;20088;-86
2022/03/05 08:48:49;;;;;;;50.63;26.45;;;1.60;99.90;;;;;;5097455;28;20040;-86
2022/03/05 08:51:14;;;;;;;50.03;24.23;;;1.60;99.90;;;;;;5115329;28;20488;-86
2022/03/05 08:53:40;;;;;;;43.45;21.98;;;1.60;99.90;;;;;;5115249;28;20027;-87
2022/03/05 08:56:05;;;;;;;46.05;20.65;;;1.70;99.90;;;;;;5115523;28;20031;-86
2022/03/05 08:58:31;;;;;;;52.33;23.45;;;1.70;99.90;;;;;;5115216;28;20476;-86
2022/03/05 09:00:59;;;;;;;41.42;22.33;;;1.80;99.90;;;;;;5097258;28;20093;-86
2022/03/05 09:03:25;;;;;;;47.30;23.27;;;1.80;99.90;;;;;;5115245;28;20074;-86
2022/03/05 09:05:52;;;;;;;48.00;22.52;;;1.80;99.90;;;;;;5115060;28;20066;-86
2022/03/05 09:08:18;;;;;;;50.97;25.25;;;1.80;99.90;;;;;;5115240;28;20031;-86
2022/03/05 09:10:43;;;;;;;57.63;26.08;;;1.90;99.90;;;;;;5115299;28;20024;-85
2022/03/05 09:13:09;;;;;;;49.25;22.45;;;1.90;99.90;;;;;;5114859;28;20024;-86
2022/03/05 09:15:35;;;;;;;36.65;17.85;;;1.90;99.90;;;;;;5115064;28;20038;-85
2022/03/05 09:18:00;;;;;;;37.83;18.45;;;2.00;99.90;;;;;;5118772;27;20023;-86
2022/03/05 09:20:26;;;;;;;31.58;16.30;;;2.00;99.90;;;;;;5125194;27;20019;-86
2022/03/05 09:22:52;;;;;;;34.25;14.13;;;2.10;99.90;;;;;;5121155;27;20035;-86
2022/03/05 09:25:17;;;;;;;30.17;13.13;;;2.20;99.90;;;;;;5096931;28;20027;-85
2022/03/05 09:27:47;;;;;;;19.48;11.68;;;2.30;99.90;;;;;;5115544;28;20028;-86
2022/03/05 09:30:12;;;;;;;30.88;14.30;;;2.50;99.90;;;;;;5134513;27;20110;-86
2022/03/05 09:32:38;;;;;;;24.48;11.38;;;2.50;99.90;;;;;;5126779;27;20066;-85
2022/03/05 09:35:04;;;;;;;21.45;10.18;;;2.60;99.90;;;;;;5113834;27;20056;-86
2022/03/05 09:37:35;;;;;;;20.10;9.90;;;2.70;99.90;;;;;;5115162;28;20016;-86
2022/03/05 09:40:02;;;;;;;18.38;8.57;;;2.70;99.90;;;;;;5097008;28;20059;-86
2022/03/05 09:42:27;;;;;;;18.92;10.18;;;2.80;99.90;;;;;;5114460;28;20030;-87
2022/03/05 09:45:04;;;;;;;15.00;9.43;;;2.80;99.90;;;;;;5113686;28;20430;-87
2022/03/05 09:47:30;;;;;;;24.13;9.82;;;2.90;99.90;;;;;;5096205;28;20024;-86
2022/03/05 09:50:05;;;;;;;15.88;9.70;;;3.10;99.90;;;;;;5114496;28;20482;-86
2022/03/05 09:52:39;;;;;;;23.38;12.75;;;3.20;99.90;;;;;;5114251;28;20421;-86
2022/03/05 09:55:05;;;;;;;15.00;9.73;;;3.30;99.90;;;;;;5111463;28;20063;-87
2022/03/05 09:57:31;;;;;;;16.98;10.15;;;3.30;99.90;;;;;;5113885;28;20016;-87
2022/03/05 09:59:57;;;;;;;17.35;9.02;;;3.30;99.90;;;;;;5114300;28;20535;-87
2022/03/05 10:02:23;;;;;;;17.00;9.82;;;3.30;99.90;;;;;;5113490;28;20012;-87
2022/03/05 10:04:48;;;;;;;14.77;9.50;;;3.30;99.90;;;;;;5096013;28;20035;-87
2022/03/05 10:07:18;;;;;;;15.77;9.43;;;3.30;99.90;;;;;;5095837;28;20544;-87
2022/03/05 10:09:46;;;;;;;21.52;9.63;;;3.40;99.90;;;;;;5114113;28;20122;-87
2022/03/05 10:12:32;;;;;;;13.52;8.85;;;3.40;99.90;;;;;;5114000;28;20034;-87
2022/03/05 10:15:20;;;;;;;13.82;8.45;;;3.40;99.90;;;;;;5113493;28;20498;-87
2022/03/05 10:17:57;;;;;;;14.10;9.10;;;3.40;99.90;;;;;;5110445;28;20024;-87
2022/03/05 10:20:28;;;;;;;15.25;8.50;;;3.40;99.90;;;;;;5101945;28;20047;-87
2022/03/05 10:22:59;;;;;;;18.40;9.40;;;3.40;99.90;;;;;;5112561;28;20023;-87
2022/03/05 10:25:39;;;;;;;13.35;8.25;;;3.40;99.90;;;;;;5128463;27;20050;-86
2022/03/05 10:28:17;;;;;;;17.25;8.45;;;3.30;99.90;;;;;;5122291;27;20023;-87
2022/03/05 10:30:45;;;;;;;18.80;8.63;;;3.30;99.90;;;;;;5111141;28;20119;-86
2022/03/05 10:33:28;;;;;;;15.25;9.23;;;3.30;99.90;;;;;;5077415;28;20115;-88
2022/03/05 10:35:55;;;;;;;18.23;9.55;;;3.20;99.90;;;;;;5123057;27;20542;-86
2022/03/05 10:38:47;;;;;;;17.05;10.52;;;3.20;99.90;;;;;;5094937;28;20118;-86
2022/03/05 10:41:17;;;;;;;15.23;9.80;;;3.20;99.90;;;;;;5100023;28;20426;-86
2022/03/05 10:44:04;;;;;;;26.10;11.70;;;3.30;99.90;;;;;;5112512;28;20031;-87
2022/03/05 10:46:59;;;;;;;20.67;10.90;;;3.30;99.90;;;;;;5095599;28;20088;-88
2022/03/05 10:49:27;;;;;;;18.15;10.02;;;3.30;99.90;;;;;;5102346;28;20050;-86
2022/03/05 10:52:02;;;;;;;18.55;11.40;;;3.30;99.90;;;;;;5112930;28;20030;-87
2022/03/05 10:54:41;;;;;;;20.27;12.02;;;3.30;99.90;;;;;;5113326;28;20023;-86
2022/03/05 10:57:08;;;;;;;24.20;12.27;;;3.20;99.90;;;;;;5112774;28;20028;-86
2022/03/05 10:59:39;;;;;;;20.30;12.02;;;3.20;99.90;;;;;;5112398;28;20023;-87
2022/03/05 11:02:10;;;;;;;22.45;11.93;;;3.10;99.90;;;;;;5112791;28;20023;-87
2022/03/05 11:04:37;;;;;;;16.92;11.90;;;3.10;99.90;;;;;;5112240;28;20073;-86
2022/03/05 11:07:04;;;;;;;16.35;11.00;;;3.10;99.90;;;;;;5112385;28;20028;-86
2022/03/05 11:09:31;;;;;;;24.02;12.15;;;3.20;99.90;;;;;;5112981;28;20020;-87
2022/03/05 11:11:59;;;;;;;18.60;12.48;;;3.30;99.90;;;;;;5112622;28;20514;-87
2022/03/05 11:14:25;;;;;;;24.48;11.98;;;3.30;99.90;;;;;;5112391;28;20016;-87
2022/03/05 11:16:51;;;;;;;17.45;10.75;;;3.40;99.90;;;;;;5112109;28;20376;-87
2022/03/05 11:19:17;;;;;;;20.23;12.40;;;3.50;99.90;;;;;;5112548;28;20090;-88
2022/03/05 11:21:42;;;;;;;18.20;11.48;;;3.50;99.90;;;;;;5112324;28;20467;-88
2022/03/05 11:24:12;;;;;;;17.05;11.10;;;3.50;99.90;;;;;;5112218;28;20026;-88
2022/03/05 11:26:38;;;;;;;18.05;12.52;;;3.50;99.90;;;;;;5093923;28;20024;-87
2022/03/05 11:29:04;;;;;;;31.02;18.10;;;3.60;99.90;;;;;;5112384;28;20022;-87
2022/03/05 11:31:32;;;;;;;23.15;12.93;;;3.60;99.90;;;;;;5110019;28;20490;-89
2022/03/05 11:34:13;;;;;;;19.77;12.70;;;3.70;99.90;;;;;;5112430;28;20074;-89
2022/03/05 11:36:39;;;;;;;17.17;11.35;;;3.70;99.90;;;;;;5111433;28;20043;-88
2022/03/05 11:39:10;;;;;;;22.52;11.20;;;3.80;99.90;;;;;;5108564;28;20066;-90
2022/03/05 11:42:02;;;;;;;16.40;11.10;;;3.80;99.90;;;;;;5093656;28;20023;-91
2022/03/05 11:44:42;;;;;;;20.00;10.10;;;4.00;99.90;;;;;;5094457;28;20020;-91
2022/03/05 11:47:27;;;;;;;16.80;9.77;;;4.10;99.90;;;;;;5094372;28;20502;-91
2022/03/05 11:49:56;;;;;;;13.47;8.60;;;4.10;99.90;;;;;;5112732;28;20479;-91
2022/03/05 11:52:22;;;;;;;12.05;8.88;;;4.20;99.90;;;;;;5112389;28;20020;-91
2022/03/05 11:55:18;;;;;;;16.85;9.85;;;4.20;99.90;;;;;;5112470;28;20435;-91
2022/03/05 11:57:52;;;;;;;18.15;9.95;;;4.20;99.90;;;;;;5112504;28;20116;-90
2022/03/05 12:00:32;;;;;;;20.52;10.27;;;4.10;99.90;;;;;;5094256;28;20038;-91
2022/03/05 12:02:59;;;;;;;14.82;8.98;;;4.10;99.90;;;;;;5112233;28;20024;-90
2022/03/05 12:05:44;;;;;;;17.10;9.50;;;4.10;99.90;;;;;;5094216;28;20157;-90
2022/03/05 12:08:21;;;;;;;14.70;7.68;;;4.10;99.90;;;;;;5113212;28;20023;-91
2022/03/05 12:11:10;;;;;;;20.92;8.57;;;4.20;99.90;;;;;;5112650;28;20032;-91
2022/03/05 12:13:43;;;;;;;18.42;8.75;;;4.20;99.90;;;;;;5094514;28;20433;-90
2022/03/05 12:16:29;;;;;;;16.63;8.52;;;4.10;99.90;;;;;;5094715;28;20028;-91
2022/03/05 12:18:57;;;;;;;17.17;9.30;;;4.10;99.90;;;;;;5098448;28;20055;-91
2022/03/05 12:21:29;;;;;;;18.10;9.88;;;4.00;99.90;;;;;;5116635;28;20410;-91
2022/03/05 12:24:11;;;;;;;18.70;9.20;;;4.00;99.90;;;;;;5098400;28;20020;-90
2022/03/05 12:27:19;;;;;;;17.63;9.57;;;4.00;99.90;;;;;;5116888;28;20098;-91
2022/03/05 12:29:52;;;;;;;15.18;10.27;;;3.90;99.90;;;;;;5098709;28;20016;-91
2022/03/05 12:32:19;;;;;;;18.45;10.38;;;4.00;99.90;;;;;;5098900;28;20012;-90
2022/03/05 12:34:48;;;;;;;16.90;10.60;;;4.00;99.90;;;;;;5114807;28;20179;-91
2022/03/05 12:37:16;;;;;;;17.80;11.23;;;4.10;99.90;;;;;;5096366;28;20020;-89
2022/03/05 12:39:43;;;;;;;20.95;13.02;;;4.10;99.90;;;;;;5094712;28;20024;-90
2022/03/05 12:42:16;;;;;;;22.63;12.00;;;4.10;99.90;;;;;;5095486;28;20024;-89
2022/03/05 12:44:41;;;;;;;24.08;11.50;;;4.20;99.90;;;;;;5096164;28;20054;-89
2022/03/05 12:47:45;;;;;;;24.52;12.73;;;4.20;99.90;;;;;;5095275;28;20063;-89
2022/03/05 12:50:18;;;;;;;25.48;11.90;;;4.20;99.90;;;;;;5095911;28;20392;-89